Time;durP1;ratioP1;P1;durP2;ratioP2;P2;SDS_P1;SDS_P2;PMS_P1;PMS_P2;Temp;Humidity;BMP_temperature;BMP_pressure;BME280_temperature;BME280_humidity;BME280_pressure;Samples;Min_cycle;Max_cycle;Signal;HPM_P1;HPM_P2
2023/05/05 00:00:51;;;;;;;;;;;;;;;14.46;47.86;93009.69;2055074;69;20092;-73
2023/05/05 00:03:19;;;;;;;;;;;;;;;14.32;47.98;93015.34;2055266;69;20145;-73
2023/05/05 00:05:45;;;;;;;;;;;;;;;14.49;47.56;93014.84;2055370;70;20057;-73
2023/05/05 00:08:10;;;;;;;;;;;;;;;14.36;49.11;93021.22;2055086;69;20151;-74
2023/05/05 00:10:36;;;;;;;;;;;;;;;14.33;47.75;93007.59;2055174;69;20157;-73
2023/05/05 00:13:01;;;;;;;;;;;;;;;14.18;47.30;93018.19;2068451;69;20542;-72
2023/05/05 00:15:27;;;;;;;;;;;;;;;14.19;46.45;93008.31;2071171;69;20151;-72
2023/05/05 00:17:52;;;;;;;;;;;;;;;14.39;46.16;93005.81;2055520;70;20078;-73
2023/05/05 00:20:17;;;;;;;;;;;;;;;14.37;47.76;93008.53;2055524;70;20050;-73
2023/05/05 00:22:43;;;;;;;;;;;;;;;14.17;50.16;93011.03;2055488;70;20127;-73
2023/05/05 00:25:09;;;;;;;;;;;;;;;13.87;50.08;93006.59;2055666;69;20428;-73
2023/05/05 00:27:34;;;;;;;;;;;;;;;13.94;49.81;93002.75;2055321;69;20050;-72
2023/05/05 00:30:00;;;;;;;;;;;;;;;14.03;47.81;93003.91;2068500;69;20059;-73
2023/05/05 00:32:25;;;;;;;;;;;;;;;13.93;46.90;92999.19;2055230;70;20111;-73
2023/05/05 00:34:51;;;;;;;;;;;;;;;14.01;46.81;93004.53;2055038;70;20057;-73
2023/05/05 00:37:19;;;;;;;;;;;;;;;14.15;47.06;93001.69;2055168;69;20115;-73
2023/05/05 00:39:45;;;;;;;;;;;;;;;14.11;48.04;93002.25;2068366;69;20050;-73
2023/05/05 00:42:10;;;;;;;;;;;;;;;14.07;47.65;93002.03;2068494;69;20127;-72
2023/05/05 00:44:39;;;;;;;;;;;;;;;14.03;49.46;92998.97;2055540;70;20086;-74
2023/05/05 00:47:06;;;;;;;;;;;;;;;14.06;49.39;93000.53;2055257;70;20057;-74
2023/05/05 00:49:32;;;;;;;;;;;;;;;14.07;48.54;92999.19;2055511;70;20054;-73
2023/05/05 00:51:57;;;;;;;;;;;;;;;13.95;49.76;93004.94;2055410;70;20050;-72
2023/05/05 00:54:23;;;;;;;;;;;;;;;14.03;48.14;93006.75;2068050;69;20489;-72
2023/05/05 00:56:49;;;;;;;;;;;;;;;14.05;49.59;93001.91;2055096;70;20047;-72
2023/05/05 00:59:15;;;;;;;;;;;;;;;13.80;49.78;93008.38;2055201;70;20131;-72
2023/05/05 01:01:40;;;;;;;;;;;;;;;13.64;50.03;93002.56;2068602;69;20054;-72
2023/05/05 01:04:06;;;;;;;;;;;;;;;13.79;49.08;92989.94;2055036;69;20418;-72
2023/05/05 01:06:47;;;;;;;;;;;;;;;13.82;48.91;92996.44;2055019;70;20054;-72
2023/05/05 01:09:18;;;;;;;;;;;;;;;13.83;47.34;92995.78;2068283;69;20105;-73
2023/05/05 01:11:59;;;;;;;;;;;;;;;14.05;47.77;92998.34;2055067;70;20074;-72
2023/05/05 01:14:36;;;;;;;;;;;;;;;14.02;46.72;92999.59;2055289;70;20066;-72
2023/05/05 01:17:06;;;;;;;;;;;;;;;13.62;46.55;92999.63;2057543;69;20042;-72
2023/05/05 01:19:50;;;;;;;;;;;;;;;13.75;46.48;93000.31;2051865;70;20154;-72
2023/05/05 01:22:18;;;;;;;;;;;;;;;13.73;46.41;92987.50;2051796;70;20050;-72
2023/05/05 01:24:50;;;;;;;;;;;;;;;13.96;46.47;92994.34;2051706;70;20059;-72
2023/05/05 01:27:29;;;;;;;;;;;;;;;14.08;46.67;92988.59;2051688;70;20573;-71
2023/05/05 01:29:54;;;;;;;;;;;;;;;14.03;48.26;92990.50;2048388;70;20059;-72
2023/05/05 01:32:24;;;;;;;;;;;;;;;13.93;49.11;92992.78;2051817;70;20062;-71
2023/05/05 01:34:49;;;;;;;;;;;;;;;13.91;49.49;92999.06;2064302;69;20135;-72
2023/05/05 01:37:23;;;;;;;;;;;;;;;13.87;50.60;92992.44;2055140;69;20554;-72
2023/05/05 01:39:50;;;;;;;;;;;;;;;13.86;50.60;92994.56;2055548;70;20054;-72
2023/05/05 01:42:17;;;;;;;;;;;;;;;13.87;49.44;92989.63;2054893;70;20050;-72
2023/05/05 01:44:43;;;;;;;;;;;;;;;13.84;47.52;92994.44;2068263;69;20090;-72
2023/05/05 01:47:11;;;;;;;;;;;;;;;13.94;47.02;92985.75;2068130;69;20054;-72
2023/05/05 01:49:37;;;;;;;;;;;;;;;13.84;45.94;92993.72;2055017;70;20089;-71
2023/05/05 01:52:04;;;;;;;;;;;;;;;13.80;45.70;92988.56;2055111;69;20054;-72
2023/05/05 01:54:31;;;;;;;;;;;;;;;13.78;47.28;92996.22;2068130;69;20050;-72
2023/05/05 01:56:57;;;;;;;;;;;;;;;13.93;46.20;92999.19;2068176;69;20499;-73
2023/05/05 01:59:24;;;;;;;;;;;;;;;13.97;45.82;92996.56;2055400;70;20109;-72
2023/05/05 02:01:50;;;;;;;;;;;;;;;14.02;46.48;92999.59;2068161;69;20550;-72
2023/05/05 02:04:17;;;;;;;;;;;;;;;13.96;48.19;92997.19;2054949;69;20094;-72
2023/05/05 02:06:44;;;;;;;;;;;;;;;14.08;47.68;92994.28;2055163;69;20522;-72
2023/05/05 02:09:10;;;;;;;;;;;;;;;14.10;47.01;92997.94;2055082;70;20112;-72
2023/05/05 02:11:37;;;;;;;;;;;;;;;14.21;46.17;93002.78;2055082;70;20092;-71
2023/05/05 02:14:04;;;;;;;;;;;;;;;14.10;47.05;93000.75;2068264;69;20073;-72
2023/05/05 02:16:30;;;;;;;;;;;;;;;14.06;47.00;93003.38;2065516;69;20074;-72
2023/05/05 02:18:57;;;;;;;;;;;;;;;13.99;46.68;92996.66;2068224;69;20133;-73
2023/05/05 02:21:23;;;;;;;;;;;;;;;14.04;48.09;93003.28;2054817;70;20085;-73
2023/05/05 02:23:50;;;;;;;;;;;;;;;14.11;47.25;93001.47;2055046;70;20050;-73
2023/05/05 02:26:17;;;;;;;;;;;;;;;14.08;46.08;93000.66;2055231;70;20074;-73
2023/05/05 02:28:57;;;;;;;;;;;;;;;13.87;47.72;92998.09;2067997;69;20168;-73
2023/05/05 02:31:25;;;;;;;;;;;;;;;13.65;48.45;93004.06;2068074;69;20113;-73
2023/05/05 02:33:52;;;;;;;;;;;;;;;13.89;47.20;92998.97;2068280;69;20117;-73
2023/05/05 02:36:22;;;;;;;;;;;;;;;13.91;47.44;93006.81;2068466;69;20054;-73
2023/05/05 02:39:05;;;;;;;;;;;;;;;13.83;48.43;93003.56;2068217;69;20058;-74
2023/05/05 02:41:37;;;;;;;;;;;;;;;13.43;48.80;93003.56;2068236;69;20050;-74
2023/05/05 02:44:08;;;;;;;;;;;;;;;13.67;47.98;92995.66;2068344;69;20082;-73
2023/05/05 02:46:36;;;;;;;;;;;;;;;13.79;46.82;92992.00;2068570;69;20145;-73
2023/05/05 02:49:02;;;;;;;;;;;;;;;13.77;48.68;92997.56;2068376;69;20066;-72
2023/05/05 02:51:27;;;;;;;;;;;;;;;13.70;49.67;92996.53;2065455;69;20140;-74
2023/05/05 02:53:55;;;;;;;;;;;;;;;13.65;49.03;93004.06;2068256;69;20133;-74
2023/05/05 02:56:43;;;;;;;;;;;;;;;13.66;49.86;93008.34;2068202;69;20156;-73
2023/05/05 02:59:08;;;;;;;;;;;;;;;13.58;50.44;93007.16;2055382;69;20050;-73
2023/05/05 03:01:53;;;;;;;;;;;;;;;13.53;48.10;93011.13;2067739;69;20066;-72
2023/05/05 03:04:24;;;;;;;;;;;;;;;13.51;50.29;92999.69;2068237;69;20188;-73
2023/05/05 03:06:53;;;;;;;;;;;;;;;13.50;50.46;93004.63;2068257;69;20508;-73
2023/05/05 03:09:24;;;;;;;;;;;;;;;13.48;50.71;92999.59;2068504;69;20123;-73
2023/05/05 03:12:02;;;;;;;;;;;;;;;13.35;50.57;93000.28;2068383;69;20059;-74
2023/05/05 03:14:35;;;;;;;;;;;;;;;13.12;49.83;93000.38;2068647;69;20585;-73
2023/05/05 03:17:02;;;;;;;;;;;;;;;13.32;49.70;93007.19;2068523;69;20054;-74
2023/05/05 03:19:28;;;;;;;;;;;;;;;13.42;49.44;93004.19;2068260;69;20043;-72
2023/05/05 03:21:58;;;;;;;;;;;;;;;13.42;49.39;93007.75;2065578;69;20138;-73
2023/05/05 03:24:23;;;;;;;;;;;;;;;13.37;50.65;93008.13;2055690;70;20527;-74
2023/05/05 03:26:57;;;;;;;;;;;;;;;13.26;52.37;93006.13;2065733;69;20165;-73
2023/05/05 03:29:29;;;;;;;;;;;;;;;13.20;51.98;93004.41;2068398;69;20050;-73
2023/05/05 03:31:57;;;;;;;;;;;;;;;12.95;51.88;93001.53;2065811;69;20060;-74
2023/05/05 03:34:24;;;;;;;;;;;;;;;13.21;50.87;93003.03;2055682;70;20474;-74
2023/05/05 03:36:49;;;;;;;;;;;;;;;13.24;51.39;93003.94;2068755;69;20093;-73
2023/05/05 03:39:15;;;;;;;;;;;;;;;13.18;52.53;93003.53;2068804;69;20429;-73
2023/05/05 03:41:41;;;;;;;;;;;;;;;13.11;52.97;92996.81;2065799;69;20145;-73
2023/05/05 03:44:08;;;;;;;;;;;;;;;12.59;54.20;93008.66;2068838;69;20089;-72
2023/05/05 03:46:35;;;;;;;;;;;;;;;12.83;52.74;93007.25;2065667;69;20049;-73
2023/05/05 03:49:01;;;;;;;;;;;;;;;12.92;52.74;93002.78;2068656;69;20042;-74
2023/05/05 03:51:27;;;;;;;;;;;;;;;12.83;52.54;93012.91;2065899;69;20062;-73
2023/05/05 03:53:53;;;;;;;;;;;;;;;12.77;52.70;93006.88;2068680;69;20108;-72
2023/05/05 03:56:18;;;;;;;;;;;;;;;12.74;53.47;93002.50;2055720;69;20082;-73
2023/05/05 03:58:44;;;;;;;;;;;;;;;12.81;52.28;93009.94;2065813;69;20058;-74
2023/05/05 04:01:11;;;;;;;;;;;;;;;12.60;53.16;93016.53;2068600;69;20050;-73
2023/05/05 04:03:37;;;;;;;;;;;;;;;12.57;53.56;93017.75;2055671;69;20055;-72
2023/05/05 04:06:03;;;;;;;;;;;;;;;12.69;53.55;93012.06;2055876;70;20113;-73
2023/05/05 04:08:30;;;;;;;;;;;;;;;12.54;54.48;93012.59;2068866;69;20050;-73
2023/05/05 04:10:56;;;;;;;;;;;;;;;12.33;55.34;93010.69;2055979;70;20058;-72
2023/05/05 04:13:22;;;;;;;;;;;;;;;12.43;54.84;93017.66;2055654;70;20500;-73
2023/05/05 04:15:47;;;;;;;;;;;;;;;12.32;55.47;93012.00;2068667;69;20053;-73
2023/05/05 04:18:14;;;;;;;;;;;;;;;12.46;55.62;93019.25;2068576;69;20059;-73
2023/05/05 04:20:40;;;;;;;;;;;;;;;12.41;55.50;93011.88;2065902;69;20039;-73
2023/05/05 04:23:05;;;;;;;;;;;;;;;12.50;55.39;93029.31;2068603;69;20137;-74
2023/05/05 04:25:31;;;;;;;;;;;;;;;12.54;55.20;93021.06;2055594;69;20057;-74
2023/05/05 04:27:57;;;;;;;;;;;;;;;12.49;55.20;93014.44;2055515;69;20055;-74
2023/05/05 04:30:23;;;;;;;;;;;;;;;12.50;54.69;93020.81;2068796;69;20058;-73
2023/05/05 04:32:49;;;;;;;;;;;;;;;12.64;54.42;93019.56;2055831;70;20050;-74
2023/05/05 04:35:15;;;;;;;;;;;;;;;12.54;54.67;93024.63;2068877;69;20043;-74
2023/05/05 04:37:41;;;;;;;;;;;;;;;12.58;54.51;93026.97;2068675;69;20046;-73
2023/05/05 04:40:07;;;;;;;;;;;;;;;12.40;56.24;93026.63;2068796;69;20046;-73
2023/05/05 04:42:35;;;;;;;;;;;;;;;12.56;55.79;93027.59;2068337;69;20047;-73
2023/05/05 04:45:01;;;;;;;;;;;;;;;12.68;55.97;93033.19;2068777;69;20131;-73
2023/05/05 04:47:28;;;;;;;;;;;;;;;12.50;56.92;93020.81;2068731;69;20062;-73
2023/05/05 04:49:54;;;;;;;;;;;;;;;12.57;56.89;93022.66;2068786;69;20047;-74
2023/05/05 04:52:20;;;;;;;;;;;;;;;12.87;55.14;93026.50;2068790;69;20082;-75
2023/05/05 04:54:46;;;;;;;;;;;;;;;12.90;55.87;93025.28;2055747;70;20157;-75
2023/05/05 04:57:11;;;;;;;;;;;;;;;12.84;55.26;93025.66;2068564;69;20200;-75
2023/05/05 04:59:37;;;;;;;;;;;;;;;12.77;55.51;93029.47;2068661;69;20052;-75
2023/05/05 05:02:02;;;;;;;;;;;;;;;12.55;56.38;93026.09;2068602;69;20153;-75
2023/05/05 05:04:28;;;;;;;;;;;;;;;12.58;55.90;93026.97;2065870;69;20110;-76
2023/05/05 05:06:53;;;;;;;;;;;;;;;12.79;55.74;93037.34;2068661;69;20457;-75
2023/05/05 05:09:19;;;;;;;;;;;;;;;12.70;56.18;93038.97;2068607;69;20053;-75
2023/05/05 05:11:44;;;;;;;;;;;;;;;12.75;54.92;93037.84;2055554;70;20058;-74
2023/05/05 05:14:09;;;;;;;;;;;;;;;12.74;55.65;93044.88;2068641;69;20507;-74
2023/05/05 05:16:35;;;;;;;;;;;;;;;12.90;55.78;93048.63;2055657;69;20061;-74
2023/05/05 05:19:01;;;;;;;;;;;;;;;13.00;55.25;93051.28;2068600;69;20050;-73
2023/05/05 05:21:26;;;;;;;;;;;;;;;13.12;55.94;93046.34;2068517;69;20583;-74
2023/05/05 05:23:52;;;;;;;;;;;;;;;13.17;55.95;93050.84;2068601;69;20054;-75
2023/05/05 05:26:18;;;;;;;;;;;;;;;13.02;56.72;93042.94;2055571;70;20049;-75
2023/05/05 05:28:44;;;;;;;;;;;;;;;13.16;56.29;93054.31;2055467;70;20502;-73
2023/05/05 05:31:09;;;;;;;;;;;;;;;12.17;58.76;93049.94;2055537;70;20046;-72
2023/05/05 05:33:35;;;;;;;;;;;;;;;12.87;56.34;93058.31;2068661;69;20042;-75
2023/05/05 05:36:01;;;;;;;;;;;;;;;13.19;56.04;93055.88;2068628;69;20058;-74
2023/05/05 05:38:26;;;;;;;;;;;;;;;13.33;56.51;93062.41;2068584;69;20437;-72
2023/05/05 05:40:54;;;;;;;;;;;;;;;13.47;55.14;93054.69;2068588;69;20482;-74
2023/05/05 05:43:21;;;;;;;;;;;;;;;13.34;54.69;93060.31;2065730;69;20463;-75
2023/05/05 05:45:47;;;;;;;;;;;;;;;13.62;54.19;93053.38;2068472;69;20046;-73
2023/05/05 05:48:13;;;;;;;;;;;;;;;13.62;53.70;93056.22;2068552;69;20066;-72
2023/05/05 05:50:38;;;;;;;;;;;;;;;13.88;53.58;93059.75;2055667;69;20061;-75
2023/05/05 05:53:04;;;;;;;;;;;;;;;14.05;51.98;93064.19;2068674;69;20046;-74
2023/05/05 05:55:29;;;;;;;;;;;;;;;14.21;52.15;93059.41;2068687;69;20050;-75
2023/05/05 05:57:55;;;;;;;;;;;;;;;14.25;53.80;93056.06;2068511;69;20046;-76
2023/05/05 06:00:20;;;;;;;;;;;;;;;14.27;52.76;93064.66;2068674;69;20417;-77
2023/05/05 06:02:53;;;;;;;;;;;;;;;14.44;51.75;93069.81;2068660;69;20135;-76
2023/05/05 06:05:22;;;;;;;;;;;;;;;14.55;49.98;93070.34;2068652;69;20050;-76
2023/05/05 06:07:49;;;;;;;;;;;;;;;14.40;51.14;93063.19;2068652;69;20046;-77
2023/05/05 06:10:15;;;;;;;;;;;;;;;14.19;51.71;93061.38;2068618;69;20058;-76
2023/05/05 06:12:41;;;;;;;;;;;;;;;13.77;54.29;93057.72;2068516;69;20498;-76
2023/05/05 06:15:07;;;;;;;;;;;;;;;14.14;53.47;93054.75;2068658;69;20087;-74
2023/05/05 06:17:32;;;;;;;;;;;;;;;14.66;51.67;93058.94;2068648;69;20051;-73
2023/05/05 06:19:58;;;;;;;;;;;;;;;14.96;50.27;93048.38;2056011;70;20138;-73
2023/05/05 06:22:23;;;;;;;;;;;;;;;14.96;51.88;93050.50;2068541;69;20058;-74
2023/05/05 06:24:50;;;;;;;;;;;;;;;15.10;51.05;93053.28;2068590;69;20050;-75
2023/05/05 06:27:16;;;;;;;;;;;;;;;15.02;50.71;93052.88;2068375;69;20421;-75
2023/05/05 06:29:41;;;;;;;;;;;;;;;15.09;49.49;93046.91;2055511;70;20058;-76
2023/05/05 06:32:07;;;;;;;;;;;;;;;15.34;48.42;93048.81;2055625;70;20054;-75
2023/05/05 06:34:32;;;;;;;;;;;;;;;15.31;48.83;93043.69;2055575;69;20049;-75
2023/05/05 06:36:58;;;;;;;;;;;;;;;15.34;48.75;93045.25;2068410;69;20430;-75
2023/05/05 06:39:23;;;;;;;;;;;;;;;15.42;46.92;93046.38;2055538;70;20046;-76
2023/05/05 06:41:49;;;;;;;;;;;;;;;15.02;48.02;93044.38;2055258;70;20071;-75
2023/05/05 06:44:14;;;;;;;;;;;;;;;14.68;51.06;93044.84;2068383;69;20146;-75
2023/05/05 06:46:42;;;;;;;;;;;;;;;14.60;51.03;93040.88;2068428;69;20088;-77
2023/05/05 06:49:07;;;;;;;;;;;;;;;15.03;50.36;93043.78;2055557;70;20112;-76
2023/05/05 06:51:33;;;;;;;;;;;;;;;14.98;52.35;93042.06;2056269;70;20074;-75
2023/05/05 06:53:58;;;;;;;;;;;;;;;14.88;53.55;93035.91;2055860;70;20141;-74
2023/05/05 06:56:24;;;;;;;;;;;;;;;15.11;51.95;93034.91;2055679;70;20154;-74
2023/05/05 06:58:49;;;;;;;;;;;;;;;15.18;52.73;93037.41;2055253;70;20417;-74
2023/05/05 07:01:15;;;;;;;;;;;;;;;15.09;52.20;93038.38;2068334;69;20149;-74
2023/05/05 07:03:40;;;;;;;;;;;;;;;15.20;50.04;93036.78;2055267;70;20133;-77
2023/05/05 07:06:05;;;;;;;;;;;;;;;15.39;48.59;93030.63;2055156;70;20046;-74
2023/05/05 07:08:31;;;;;;;;;;;;;;;15.48;48.20;93023.22;2055441;70;20090;-73
2023/05/05 07:10:56;;;;;;;;;;;;;;;15.56;47.92;93017.94;2055405;70;20565;-73
2023/05/05 07:13:22;;;;;;;;;;;;;;;15.76;50.02;93023.91;2055169;70;20054;-73
2023/05/05 07:15:48;;;;;;;;;;;;;;;15.99;51.06;93015.03;2055340;70;20042;-73
2023/05/05 07:18:14;;;;;;;;;;;;;;;16.29;49.12;93025.56;2055208;70;20070;-76
2023/05/05 07:20:39;;;;;;;;;;;;;;;16.55;46.99;93023.16;2068229;69;20136;-78
2023/05/05 07:23:04;;;;;;;;;;;;;;;16.69;46.75;93023.78;2055441;70;20119;-73
2023/05/05 07:25:30;;;;;;;;;;;;;;;16.77;45.16;93013.53;2055569;70;20062;-76
2023/05/05 07:27:55;;;;;;;;;;;;;;;17.02;45.36;93017.38;2055784;70;20042;-74
2023/05/05 07:30:22;;;;;;;;;;;;;;;17.20;45.41;93014.56;2055450;70;20119;-72
2023/05/05 07:32:48;;;;;;;;;;;;;;;17.70;43.52;93015.88;2055439;70;20050;-73
2023/05/05 07:35:13;;;;;;;;;;;;;;;17.87;43.39;93014.44;2055533;70;20066;-72
2023/05/05 07:37:39;;;;;;;;;;;;;;;17.12;43.14;93005.69;2068453;69;20509;-73
2023/05/05 07:40:04;;;;;;;;;;;;;;;17.53;43.76;93010.91;2055426;70;20047;-75
2023/05/05 07:42:30;;;;;;;;;;;;;;;18.41;42.61;93005.75;2055133;70;20085;-72
2023/05/05 07:44:55;;;;;;;;;;;;;;;18.34;41.93;92999.09;2055183;70;20395;-72
2023/05/05 07:47:21;;;;;;;;;;;;;;;18.89;41.33;93003.22;2055165;70;20054;-77
2023/05/05 07:49:46;;;;;;;;;;;;;;;18.92;41.92;92996.91;2055217;70;20062;-76
2023/05/05 07:52:12;;;;;;;;;;;;;;;19.60;39.66;92997.03;2055307;70;20111;-76
2023/05/05 07:54:37;;;;;;;;;;;;;;;19.71;38.59;92980.97;2055345;70;20049;-76
2023/05/05 07:57:03;;;;;;;;;;;;;;;19.97;38.94;92986.75;2054944;69;20172;-78
2023/05/05 07:59:28;;;;;;;;;;;;;;;20.43;37.64;92986.66;2055122;70;20126;-75
2023/05/05 08:01:54;;;;;;;;;;;;;;;20.80;36.34;92980.63;2068145;69;20117;-71
2023/05/05 08:04:19;;;;;;;;;;;;;;;21.25;34.92;92984.63;2055408;70;20058;-75
2023/05/05 08:06:44;;;;;;;;;;;;;;;21.56;35.31;92982.56;2068369;69;20482;-72
2023/05/05 08:09:10;;;;;;;;;;;;;;;21.63;34.22;92980.59;2055329;70;20489;-73
2023/05/05 08:11:36;;;;;;;;;;;;;;;21.69;34.37;92975.00;2055198;70;20478;-73
2023/05/05 08:14:01;;;;;;;;;;;;;;;21.25;33.31;92967.47;2055202;69;20046;-72
2023/05/05 08:16:26;;;;;;;;;;;;;;;20.86;34.00;92965.00;2068370;69;20053;-76
2023/05/05 08:18:52;;;;;;;;;;;;;;;21.76;36.13;92968.00;2055603;70;20066;-77
2023/05/05 08:21:17;;;;;;;;;;;;;;;22.81;33.16;92966.69;2055690;70;20046;-77
2023/05/05 08:23:42;;;;;;;;;;;;;;;22.74;33.04;92952.91;2055639;70;20120;-77
2023/05/05 08:26:08;;;;;;;;;;;;;;;22.67;31.30;92949.19;2055667;70;20143;-76
2023/05/05 08:28:35;;;;;;;;;;;;;;;22.07;32.75;92941.47;2055370;70;20069;-75
2023/05/05 08:31:04;;;;;;;;;;;;;;;23.09;31.79;92951.44;2068645;69;20189;-77
2023/05/05 08:33:30;;;;;;;;;;;;;;;23.79;31.03;92936.13;2068558;69;20034;-73
2023/05/05 08:35:55;;;;;;;;;;;;;;;23.39;29.97;92941.91;2055684;70;20099;-75
2023/05/05 08:38:21;;;;;;;;;;;;;;;23.94;30.38;92940.66;2055634;69;20137;-75
2023/05/05 08:40:46;;;;;;;;;;;;;;;23.47;30.78;92934.16;2055486;70;20621;-78
2023/05/05 08:43:11;;;;;;;;;;;;;;;24.29;30.09;92930.38;2055475;69;20425;-75
2023/05/05 08:45:39;;;;;;;;;;;;;;;24.74;28.37;92927.31;2055422;69;20152;-74
2023/05/05 08:48:05;;;;;;;;;;;;;;;24.93;29.89;92925.41;2068719;69;20050;-74
2023/05/05 08:50:31;;;;;;;;;;;;;;;25.41;30.58;92927.31;2055550;69;20081;-80
2023/05/05 08:53:02;;;;;;;;;;;;;;;24.93;28.07;92926.13;2065873;69;20509;-73
2023/05/05 08:55:32;;;;;;;;;;;;;;;25.08;28.70;92921.25;2055517;70;20050;-74
2023/05/05 08:58:01;;;;;;;;;;;;;;;25.71;29.32;92918.94;2055432;69;20058;-78
2023/05/05 09:00:27;;;;;;;;;;;;;;;26.12;28.12;92912.75;2068296;69;20050;-75
2023/05/05 09:02:54;;;;;;;;;;;;;;;26.49;29.68;92922.38;2055621;70;20061;-76
2023/05/05 09:05:20;;;;;;;;;;;;;;;26.66;26.49;92920.97;2068728;69;20203;-79
2023/05/05 09:07:46;;;;;;;;;;;;;;;26.45;26.51;92911.53;2068650;69;20153;-78
2023/05/05 09:10:11;;;;;;;;;;;;;;;26.59;28.52;92916.63;2068523;69;20062;-73
2023/05/05 09:12:40;;;;;;;;;;;;;;;27.68;27.45;92912.56;2055556;69;20050;-73
2023/05/05 09:15:07;;;;;;;;;;;;;;;26.61;24.64;92920.25;2055591;69;20042;-72
2023/05/05 09:17:32;;;;;;;;;;;;;;;26.07;25.14;92906.22;2055790;70;20425;-80
2023/05/05 09:20:03;;;;;;;;;;;;;;;27.08;24.84;92900.22;2055649;70;20050;-79
2023/05/05 09:22:36;;;;;;;;;;;;;;;27.07;26.54;92898.72;2068730;69;20169;-77
2023/05/05 09:25:02;;;;;;;;;;;;;;;28.26;26.19;92899.50;2055695;70;20047;-74
2023/05/05 09:27:28;;;;;;;;;;;;;;;27.45;25.21;92894.50;2055807;70;20042;-75
2023/05/05 09:29:55;;;;;;;;;;;;;;;27.95;25.30;92887.28;2055589;70;20090;-76
2023/05/05 09:32:21;;;;;;;;;;;;;;;27.42;25.95;92878.56;2055756;69;20199;-76
2023/05/05 09:34:56;;;;;;;;;;;;;;;29.12;25.42;92882.53;2055637;70;20089;-76
2023/05/05 09:37:29;;;;;;;;;;;;;;;29.48;24.10;92868.53;2055678;69;20050;-76
2023/05/05 09:39:55;;;;;;;;;;;;;;;29.34;24.92;92869.34;2055650;69;20098;-77
2023/05/05 09:42:20;;;;;;;;;;;;;;;30.13;24.25;92867.97;2067767;69;20062;-76
2023/05/05 09:44:46;;;;;;;;;;;;;;;28.94;24.51;92859.44;2067902;69;20066;-76
2023/05/05 09:47:11;;;;;;;;;;;;;;;29.86;23.61;92862.44;2055465;70;20093;-76
2023/05/05 09:49:37;;;;;;;;;;;;;;;30.86;23.82;92867.19;2055526;70;20051;-76
2023/05/05 09:52:13;;;;;;;;;;;;;;;29.98;24.12;92855.09;2055333;70;20078;-78
2023/05/05 09:54:39;;;;;;;;;;;;;;;30.11;23.43;92856.41;2055412;70;20075;-78
2023/05/05 09:57:04;;;;;;;;;;;;;;;30.25;23.45;92855.56;2055231;69;20174;-76
2023/05/05 09:59:30;;;;;;;;;;;;;;;32.07;21.69;92857.41;2055425;70;20061;-77
2023/05/05 10:02:08;;;;;;;;;;;;;;;30.03;23.00;92845.59;2068637;69;20058;-79
2023/05/05 10:04:34;;;;;;;;;;;;;;;28.83;22.84;92852.97;2055647;70;20453;-73
2023/05/05 10:07:00;;;;;;;;;;;;;;;30.12;22.75;92840.41;2055679;70;20055;-74
2023/05/05 10:09:26;;;;;;;;;;;;;;;31.40;21.53;92841.03;2055730;70;20070;-74
2023/05/05 10:11:52;;;;;;;;;;;;;;;32.03;20.93;92845.13;2055528;69;20062;-74
2023/05/05 10:14:17;;;;;;;;;;;;;;;31.20;20.82;92844.19;2055607;69;20050;-73
2023/05/05 10:16:47;;;;;;;;;;;;;;;32.35;21.18;92835.06;2055554;70;20470;-75
2023/05/05 10:19:14;;;;;;;;;;;;;;;31.60;21.99;92840.69;2055539;69;20112;-76
2023/05/05 10:21:40;;;;;;;;;;;;;;;30.86;21.42;92837.41;2055581;70;20134;-73
2023/05/05 10:24:09;;;;;;;;;;;;;;;31.54;20.37;92832.09;2055440;69;20062;-76
2023/05/05 10:26:37;;;;;;;;;;;;;;;33.64;21.56;92827.25;2055406;70;20504;-74
2023/05/05 10:29:06;;;;;;;;;;;;;;;34.58;20.05;92824.84;2055221;69;20058;-80
2023/05/05 10:31:45;;;;;;;;;;;;;;;34.76;19.04;92824.31;2055247;70;20078;-74
2023/05/05 10:34:16;;;;;;;;;;;;;;;34.47;17.88;92824.41;2068393;69;20137;-74
2023/05/05 10:36:42;;;;;;;;;;;;;;;36.52;17.54;92819.53;2055535;69;20565;-78
2023/05/05 10:39:09;;;;;;;;;;;;;;;36.55;15.60;92805.50;2055496;69;20052;-76
2023/05/05 10:41:35;;;;;;;;;;;;;;;39.18;15.17;92806.56;2068290;69;20502;-78
2023/05/05 10:44:01;;;;;;;;;;;;;;;38.67;14.23;92805.19;2055638;70;20050;-77
2023/05/05 10:46:27;;;;;;;;;;;;;;;41.04;13.87;92800.38;2055544;70;20100;-76
2023/05/05 10:48:55;;;;;;;;;;;;;;;42.52;14.29;92800.16;2055524;70;20513;-78
2023/05/05 10:51:28;;;;;;;;;;;;;;;42.96;13.93;92804.94;2055429;70;20046;-77
2023/05/05 10:53:58;;;;;;;;;;;;;;;40.29;15.10;92793.19;2068438;69;20606;-76
2023/05/05 10:56:30;;;;;;;;;;;;;;;40.74;13.78;92787.94;2068461;69;20066;-75
2023/05/05 10:58:55;;;;;;;;;;;;;;;39.83;14.82;92779.25;2055287;69;20431;-75
2023/05/05 11:01:28;;;;;;;;;;;;;;;39.72;14.87;92773.13;2068334;69;20563;-75
2023/05/05 11:04:12;;;;;;;;;;;;;;;40.23;14.54;92758.81;2055402;69;20062;-76
2023/05/05 11:06:38;;;;;;;;;;;;;;;39.04;15.67;92754.97;2055458;70;20082;-74
2023/05/05 11:09:23;;;;;;;;;;;;;;;40.38;13.44;92755.84;2055236;70;20116;-76
2023/05/05 11:12:02;;;;;;;;;;;;;;;40.21;13.84;92753.03;2055093;70;20070;-76
2023/05/05 11:14:28;;;;;;;;;;;;;;;40.43;14.46;92741.59;2055239;70;20061;-75
2023/05/05 11:16:53;;;;;;;;;;;;;;;40.13;14.51;92741.63;2055230;70;20078;-75
2023/05/05 11:19:38;;;;;;;;;;;;;;;39.58;13.53;92735.50;2055253;70;20051;-76
2023/05/05 11:22:03;;;;;;;;;;;;;;;37.76;13.88;92725.28;2068240;69;20430;-78
2023/05/05 11:24:29;;;;;;;;;;;;;;;44.56;12.11;92742.75;2055419;70;20049;-75
2023/05/05 11:26:54;;;;;;;;;;;;;;;46.14;9.33;92738.22;2055081;70;20074;-77
2023/05/05 11:29:20;;;;;;;;;;;;;;;46.58;10.45;92740.09;2055202;70;20144;-77
2023/05/05 11:32:05;;;;;;;;;;;;;;;45.73;11.28;92737.53;2068176;69;20054;-77
2023/05/05 11:34:30;;;;;;;;;;;;;;;45.49;10.43;92725.16;2055052;69;20128;-75
2023/05/05 11:36:59;;;;;;;;;;;;;;;46.30;10.12;92731.06;2067996;69;20447;-75
2023/05/05 11:39:31;;;;;;;;;;;;;;;49.05;8.94;92734.97;2054549;69;20122;-74
2023/05/05 11:41:57;;;;;;;;;;;;;;;48.96;9.41;92724.59;2054811;70;20070;-77
2023/05/05 11:44:30;;;;;;;;;;;;;;;49.88;8.89;92723.22;2068092;69;20509;-75
2023/05/05 11:46:59;;;;;;;;;;;;;;;46.47;8.79;92712.66;2055059;69;20057;-74
2023/05/05 11:49:32;;;;;;;;;;;;;;;45.76;9.68;92709.06;2055059;70;20043;-75
2023/05/05 11:51:58;;;;;;;;;;;;;;;44.09;10.05;92704.41;2068229;69;20047;-75
2023/05/05 11:54:23;;;;;;;;;;;;;;;40.59;12.49;92693.56;2055553;69;20430;-76
2023/05/05 11:56:50;;;;;;;;;;;;;;;44.58;10.73;92694.41;2055734;69;20479;-74
2023/05/05 11:59:15;;;;;;;;;;;;;;;41.22;12.26;92689.41;2055634;70;20050;-78
2023/05/05 12:01:41;;;;;;;;;;;;;;;44.88;9.92;92695.28;2055835;70;20057;-78
2023/05/05 12:04:10;;;;;;;;;;;;;;;43.44;10.22;92690.91;2055546;70;20421;-77
2023/05/05 12:06:35;;;;;;;;;;;;;;;48.26;9.16;92700.63;2055627;70;20054;-77
2023/05/05 12:09:01;;;;;;;;;;;;;;;45.83;9.71;92689.25;2055702;70;20049;-79
2023/05/05 12:11:26;;;;;;;;;;;;;;;49.06;8.58;92685.56;2068602;69;20094;-79
2023/05/05 12:14:10;;;;;;;;;;;;;;;42.92;11.22;92666.03;2068478;69;20115;-76
2023/05/05 12:16:36;;;;;;;;;;;;;;;43.99;11.15;92671.75;2068532;69;20482;-76
2023/05/05 12:19:10;;;;;;;;;;;;;;;42.02;11.21;92673.78;2055556;69;20089;-76
2023/05/05 12:21:37;;;;;;;;;;;;;;;44.66;11.45;92667.16;2055695;70;20085;-78
2023/05/05 12:24:02;;;;;;;;;;;;;;;44.97;12.26;92677.59;2055495;69;20057;-79
2023/05/05 12:26:29;;;;;;;;;;;;;;;43.74;9.80;92666.72;2055717;69;20138;-79
2023/05/05 12:28:58;;;;;;;;;;;;;;;44.49;10.42;92652.03;2068437;69;20442;-79
2023/05/05 12:31:37;;;;;;;;;;;;;;;41.47;11.41;92651.09;2055533;70;20214;-79
2023/05/05 12:34:03;;;;;;;;;;;;;;;39.58;12.44;92644.19;2055435;70;20445;-79
2023/05/05 12:36:29;;;;;;;;;;;;;;;43.05;11.87;92639.34;2055520;70;20050;-80
2023/05/05 12:38:55;;;;;;;;;;;;;;;45.52;11.01;92649.16;2055465;69;20141;-80
2023/05/05 12:41:21;;;;;;;;;;;;;;;45.37;10.18;92647.22;2055474;70;20054;-78
2023/05/05 12:43:46;;;;;;;;;;;;;;;45.79;9.56;92650.91;2055448;69;20066;-78
2023/05/05 12:46:12;;;;;;;;;;;;;;;38.62;12.78;92628.19;2069524;69;20515;-75
2023/05/05 12:48:39;;;;;;;;;;;;;;;39.62;12.57;92632.91;2070881;69;20062;-77